sensor_id;sensor_type;location;lat;lon;timestamp;pressure;altitude;pressure_sealevel;temperature;humidity
75221;BME280;63802;53.232;6.570;2023-02-05T00:00:44;103693.28;;;3.86;83.11
75221;BME280;63802;53.232;6.570;2023-02-05T00:03:09;103673.59;;;3.69;83.44
75221;BME280;63802;53.232;6.570;2023-02-05T00:05:34;103687.84;;;3.81;84.07
75221;BME280;63802;53.232;6.570;2023-02-05T00:08:00;103668.75;;;3.71;84.05
75221;BME280;63802;53.232;6.570;2023-02-05T00:10:26;103666.81;;;3.67;84.21
75221;BME280;63802;53.232;6.570;2023-02-05T00:12:51;103659.00;;;3.70;84.45
75221;BME280;63802;53.232;6.570;2023-02-05T00:15:16;103681.34;;;3.82;84.62
75221;BME280;63802;53.232;6.570;2023-02-05T00:17:42;103675.13;;;3.82;85.32
75221;BME280;63802;53.232;6.570;2023-02-05T00:20:08;103665.97;;;3.83;85.25
75221;BME280;63802;53.232;6.570;2023-02-05T00:22:33;103673.81;;;3.84;85.58
75221;BME280;63802;53.232;6.570;2023-02-05T00:24:59;103673.81;;;3.84;85.39
75221;BME280;63802;53.232;6.570;2023-02-05T00:27:25;103679.28;;;3.89;85.72
75221;BME280;63802;53.232;6.570;2023-02-05T00:29:50;103671.44;;;3.88;85.97
75221;BME280;63802;53.232;6.570;2023-02-05T00:32:16;103674.22;;;3.93;85.97
75221;BME280;63802;53.232;6.570;2023-02-05T00:34:41;103664.25;;;3.93;86.30
75221;BME280;63802;53.232;6.570;2023-02-05T00:37:06;103652.91;;;3.96;86.23
75221;BME280;63802;53.232;6.570;2023-02-05T00:39:32;103643.75;;;3.97;86.28
75221;BME280;63802;53.232;6.570;2023-02-05T00:41:57;103641.63;;;3.99;86.39
75221;BME280;63802;53.232;6.570;2023-02-05T00:44:23;103648.91;;;3.99;86.31
75221;BME280;63802;53.232;6.570;2023-02-05T00:46:48;103639.41;;;3.96;86.33
75221;BME280;63802;53.232;6.570;2023-02-05T00:49:13;103652.81;;;4.08;86.56
75221;BME280;63802;53.232;6.570;2023-02-05T00:51:39;103656.81;;;4.05;86.31
75221;BME280;63802;53.232;6.570;2023-02-05T00:54:04;103661.19;;;4.06;86.37
75221;BME280;63802;53.232;6.570;2023-02-05T00:56:29;103664.94;;;4.05;86.45
75221;BME280;63802;53.232;6.570;2023-02-05T00:58:55;103664.94;;;4.05;86.61
75221;BME280;63802;53.232;6.570;2023-02-05T01:01:22;103639.41;;;3.96;86.73
75221;BME280;63802;53.232;6.570;2023-02-05T01:03:47;103652.50;;;4.04;87.07
75221;BME280;63802;53.232;6.570;2023-02-05T01:06:13;103643.00;;;4.02;86.94
75221;BME280;63802;53.232;6.570;2023-02-05T01:08:38;103642.59;;;4.10;86.76
75221;BME280;63802;53.232;6.570;2023-02-05T01:11:08;103649.38;;;4.13;87.13
75221;BME280;63802;53.232;6.570;2023-02-05T01:13:34;103620.56;;;4.01;87.22
75221;BME280;63802;53.232;6.570;2023-02-05T01:16:00;103626.47;;;3.98;87.48
75221;BME280;63802;53.232;6.570;2023-02-05T01:18:25;103645.03;;;4.12;87.74
75221;BME280;63802;53.232;6.570;2023-02-05T01:20:51;103634.50;;;4.10;87.62
75221;BME280;63802;53.232;6.570;2023-02-05T01:23:16;103635.53;;;4.09;88.09
75221;BME280;63802;53.232;6.570;2023-02-05T01:25:41;103620.00;;;3.99;88.10
75221;BME280;63802;53.232;6.570;2023-02-05T01:28:07;103623.03;;;4.03;88.68
75221;BME280;63802;53.232;6.570;2023-02-05T01:30:33;103630.06;;;4.04;88.91
75221;BME280;63802;53.232;6.570;2023-02-05T01:33:00;103623.34;;;4.06;88.93
75221;BME280;63802;53.232;6.570;2023-02-05T01:35:26;103621.69;;;4.05;89.04
75221;BME280;63802;53.232;6.570;2023-02-05T01:37:51;103612.47;;;4.01;89.30
75221;BME280;63802;53.232;6.570;2023-02-05T01:40:17;103621.69;;;4.05;89.70
75221;BME280;63802;53.232;6.570;2023-02-05T01:42:43;103618.19;;;4.05;89.88
75221;BME280;63802;53.232;6.570;2023-02-05T01:47:48;103575.59;;;3.90;90.01
75221;BME280;63802;53.232;6.570;2023-02-05T01:50:16;103594.63;;;4.00;90.25
75221;BME280;63802;53.232;6.570;2023-02-05T01:52:43;103598.97;;;4.01;90.52
75221;BME280;63802;53.232;6.570;2023-02-05T01:55:10;103584.56;;;3.96;90.71
75221;BME280;63802;53.232;6.570;2023-02-05T01:57:36;103591.13;;;4.00;91.22
75221;BME280;63802;53.232;6.570;2023-02-05T02:00:04;103593.56;;;4.01;91.10
75221;BME280;63802;53.232;6.570;2023-02-05T02:02:30;103579.41;;;3.94;91.07
75221;BME280;63802;53.232;6.570;2023-02-05T02:04:59;103595.50;;;4.06;91.06
75221;BME280;63802;53.232;6.570;2023-02-05T02:07:26;103593.06;;;4.04;91.43
75221;BME280;63802;53.232;6.570;2023-02-05T02:09:52;103602.06;;;4.10;91.68
75221;BME280;63802;53.232;6.570;2023-02-05T02:12:23;103598.75;;;4.08;91.53
75221;BME280;63802;53.232;6.570;2023-02-05T02:14:54;103589.59;;;4.09;91.88
75221;BME280;63802;53.232;6.570;2023-02-05T02:17:22;103584.53;;;4.13;92.10
75221;BME280;63802;53.232;6.570;2023-02-05T02:20:07;103580.25;;;4.17;91.82
75221;BME280;63802;53.232;6.570;2023-02-05T02:28:07;103565.22;;;4.26;92.37
75221;BME280;63802;53.232;6.570;2023-02-05T02:31:16;103562.03;;;4.29;92.80
75221;BME280;63802;53.232;6.570;2023-02-05T02:39:20;103560.38;;;4.28;93.14
75221;BME280;63802;53.232;6.570;2023-02-05T02:41:52;103543.66;;;4.31;93.21
75221;BME280;63802;53.232;6.570;2023-02-05T02:44:25;103545.53;;;4.30;92.91
75221;BME280;63802;53.232;6.570;2023-02-05T02:46:58;103543.66;;;4.31;93.32
75221;BME280;63802;53.232;6.570;2023-02-05T02:49:37;103524.69;;;4.26;93.42
75221;BME280;63802;53.232;6.570;2023-02-05T02:52:06;103522.59;;;4.33;93.54
75221;BME280;63802;53.232;6.570;2023-02-05T02:54:34;103512.88;;;4.32;93.51
75221;BME280;63802;53.232;6.570;2023-02-05T02:57:03;103523.97;;;4.35;93.66
75221;BME280;63802;53.232;6.570;2023-02-05T02:59:34;103530.19;;;4.36;93.45
75221;BME280;63802;53.232;6.570;2023-02-05T03:02:01;103527.78;;;4.39;93.42
75221;BME280;63802;53.232;6.570;2023-02-05T03:04:40;103527.78;;;4.39;93.66
75221;BME280;63802;53.232;6.570;2023-02-05T03:09:51;103549.19;;;4.41;93.68
75221;BME280;63802;53.232;6.570;2023-02-05T03:12:20;103563.75;;;4.40;93.47
75221;BME280;63802;53.232;6.570;2023-02-05T03:14:46;103556.78;;;4.44;94.10
75221;BME280;63802;53.232;6.570;2023-02-05T03:17:12;103551.31;;;4.39;94.09
75221;BME280;63802;53.232;6.570;2023-02-05T03:19:47;103550.00;;;4.41;94.04
75221;BME280;63802;53.232;6.570;2023-02-05T03:22:15;103551.31;;;4.39;94.15
75221;BME280;63802;53.232;6.570;2023-02-05T03:24:40;103554.09;;;4.44;93.78
75221;BME280;63802;53.232;6.570;2023-02-05T03:27:06;103538.66;;;4.44;94.26
75221;BME280;63802;53.232;6.570;2023-02-05T03:29:36;103526.28;;;4.48;94.31
75221;BME280;63802;53.232;6.570;2023-02-05T03:32:29;103534.13;;;4.50;94.28
75221;BME280;63802;53.232;6.570;2023-02-05T03:35:23;103527.13;;;4.54;94.33
75221;BME280;63802;53.232;6.570;2023-02-05T03:38:31;103525.56;;;4.58;93.97
75221;BME280;63802;53.232;6.570;2023-02-05T03:41:14;103517.13;;;4.54;94.63
75221;BME280;63802;53.232;6.570;2023-02-05T03:43:55;103525.03;;;4.61;94.80
75221;BME280;63802;53.232;6.570;2023-02-05T03:46:30;103523.16;;;4.61;94.36
75221;BME280;63802;53.232;6.570;2023-02-05T03:49:16;103516.41;;;4.64;94.62
75221;BME280;63802;53.232;6.570;2023-02-05T03:54:42;103514.22;;;4.61;94.78
75221;BME280;63802;53.232;6.570;2023-02-05T03:57:18;103512.94;;;4.68;94.68
75221;BME280;63802;53.232;6.570;2023-02-05T03:59:46;103519.16;;;4.69;95.00
75221;BME280;63802;53.232;6.570;2023-02-05T04:02:12;103505.66;;;4.69;94.68
75221;BME280;63802;53.232;6.570;2023-02-05T04:04:38;103496.97;;;4.67;94.78
75221;BME280;63802;53.232;6.570;2023-02-05T04:07:04;103497.53;;;4.69;95.01
75221;BME280;63802;53.232;6.570;2023-02-05T04:09:29;103508.97;;;4.76;94.98
75221;BME280;63802;53.232;6.570;2023-02-05T04:11:55;103501.09;;;4.74;95.03
75221;BME280;63802;53.232;6.570;2023-02-05T04:14:20;103497.63;;;4.79;95.01
75221;BME280;63802;53.232;6.570;2023-02-05T04:16:45;103509.56;;;4.83;95.00
75221;BME280;63802;53.232;6.570;2023-02-05T04:19:11;103509.56;;;4.83;95.07
75221;BME280;63802;53.232;6.570;2023-02-05T04:21:36;103500.88;;;4.81;95.11
75221;BME280;63802;53.232;6.570;2023-02-05T04:24:02;103504.69;;;4.85;95.22
75221;BME280;63802;53.232;6.570;2023-02-05T04:26:28;103499.84;;;4.87;95.62
75221;BME280;63802;53.232;6.570;2023-02-05T04:28:53;103499.34;;;4.90;95.66
75221;BME280;63802;53.232;6.570;2023-02-05T04:31:19;103480.88;;;4.82;95.35
75221;BME280;63802;53.232;6.570;2023-02-05T04:33:45;103489.34;;;4.91;95.80
75221;BME280;63802;53.232;6.570;2023-02-05T04:36:10;103490.41;;;4.90;95.77
75221;BME280;63802;53.232;6.570;2023-02-05T04:38:36;103479.84;;;4.88;95.68
75221;BME280;63802;53.232;6.570;2023-02-05T04:41:02;103471.72;;;4.88;95.66
75221;BME280;63802;53.232;6.570;2023-02-05T04:43:27;103492.13;;;5.01;95.88
75221;BME280;63802;53.232;6.570;2023-02-05T04:45:52;103483.19;;;5.00;95.89
75221;BME280;63802;53.232;6.570;2023-02-05T04:48:18;103472.88;;;4.97;95.90
75221;BME280;63802;53.232;6.570;2023-02-05T04:50:45;103482.13;;;5.06;95.82
75221;BME280;63802;53.232;6.570;2023-02-05T04:53:11;103477.78;;;5.00;96.25
75221;BME280;63802;53.232;6.570;2023-02-05T04:55:37;103473.19;;;5.01;95.88
75221;BME280;63802;53.232;6.570;2023-02-05T04:58:02;103482.22;;;5.16;95.90
75221;BME280;63802;53.232;6.570;2023-02-05T05:00:28;103480.28;;;5.12;96.20
75221;BME280;63802;53.232;6.570;2023-02-05T05:02:53;103478.41;;;5.12;96.12
75221;BME280;63802;53.232;6.570;2023-02-05T05:05:19;103476.78;;;5.16;95.98
75221;BME280;63802;53.232;6.570;2023-02-05T05:07:44;103472.22;;;5.22;96.00
75221;BME280;63802;53.232;6.570;2023-02-05T05:10:11;103483.16;;;5.37;96.26
75221;BME280;63802;53.232;6.570;2023-02-05T05:12:37;103487.25;;;5.39;96.29
75221;BME280;63802;53.232;6.570;2023-02-05T05:15:04;103488.84;;;5.40;96.35
75221;BME280;63802;53.232;6.570;2023-02-05T05:17:30;103491.31;;;5.42;96.44
75221;BME280;63802;53.232;6.570;2023-02-05T05:19:55;103486.69;;;5.42;96.32
75221;BME280;63802;53.232;6.570;2023-02-05T05:22:21;103479.66;;;5.41;96.60
75221;BME280;63802;53.232;6.570;2023-02-05T05:24:46;103482.09;;;5.43;96.38
75221;BME280;63802;53.232;6.570;2023-02-05T05:27:12;103461.19;;;5.33;96.82
75221;BME280;63802;53.232;6.570;2023-02-05T05:29:38;103478.03;;;5.40;96.50
75221;BME280;63802;53.232;6.570;2023-02-05T05:32:03;103474.78;;;5.38;96.56
75221;BME280;63802;53.232;6.570;2023-02-05T05:34:29;103492.16;;;5.48;96.60
75221;BME280;63802;53.232;6.570;2023-02-05T05:36:55;103482.09;;;5.43;96.59
75221;BME280;63802;53.232;6.570;2023-02-05T05:39:20;103492.13;;;5.42;96.63
75221;BME280;63802;53.232;6.570;2023-02-05T05:42:04;103488.84;;;5.40;96.61
75221;BME280;63802;53.232;6.570;2023-02-05T05:44:48;103484.78;;;5.38;96.20
75221;BME280;63802;53.232;6.570;2023-02-05T05:47:17;103495.91;;;5.41;96.49
75221;BME280;63802;53.232;6.570;2023-02-05T05:49:43;103480.44;;;5.32;96.22
75221;BME280;63802;53.232;6.570;2023-02-05T05:52:09;103497.50;;;5.32;96.62
75221;BME280;63802;53.232;6.570;2023-02-05T05:54:35;103509.06;;;5.23;96.56
75221;BME280;63802;53.232;6.570;2023-02-05T05:57:00;103504.94;;;5.15;96.03
75221;BME280;63802;53.232;6.570;2023-02-05T05:59:25;103511.44;;;5.14;96.49
75221;BME280;63802;53.232;6.570;2023-02-05T06:01:54;103505.44;;;5.07;95.86
75221;BME280;63802;53.232;6.570;2023-02-05T06:04:19;103503.78;;;5.06;96.19
75221;BME280;63802;53.232;6.570;2023-02-05T06:06:45;103492.34;;;4.99;95.96
75221;BME280;63802;53.232;6.570;2023-02-05T06:09:10;103498.88;;;4.98;95.86
75221;BME280;63802;53.232;6.570;2023-02-05T06:11:35;103504.28;;;4.98;95.73
75221;BME280;63802;53.232;6.570;2023-02-05T06:14:01;103510.75;;;4.97;95.81
75221;BME280;63802;53.232;6.570;2023-02-05T06:16:26;103512.41;;;4.98;95.62
75221;BME280;63802;53.232;6.570;2023-02-05T06:18:52;103504.78;;;4.95;95.47
75221;BME280;63802;53.232;6.570;2023-02-05T06:21:17;103521.06;;;5.00;95.88
75221;BME280;63802;53.232;6.570;2023-02-05T06:23:43;103512.94;;;5.00;95.52
75221;BME280;63802;53.232;6.570;2023-02-05T06:26:08;103520.00;;;5.01;95.58
75221;BME280;63802;53.232;6.570;2023-02-05T06:28:36;103524.31;;;5.02;95.79
75221;BME280;63802;53.232;6.570;2023-02-05T06:31:02;103521.38;;;5.04;95.56
75221;BME280;63802;53.232;6.570;2023-02-05T06:33:27;103521.13;;;5.05;95.75
75221;BME280;63802;53.232;6.570;2023-02-05T06:35:53;103510.50;;;4.99;95.68
75221;BME280;63802;53.232;6.570;2023-02-05T06:38:18;103521.13;;;5.05;95.65
75221;BME280;63802;53.232;6.570;2023-02-05T06:40:44;103505.91;;;4.99;95.98
75221;BME280;63802;53.232;6.570;2023-02-05T06:43:10;103496.72;;;5.00;95.52
75221;BME280;63802;53.232;6.570;2023-02-05T06:45:36;103505.16;;;5.04;95.94
75221;BME280;63802;53.232;6.570;2023-02-05T06:48:01;103517.91;;;5.08;95.80
75221;BME280;63802;53.232;6.570;2023-02-05T06:50:27;103509.50;;;5.10;95.33
75221;BME280;63802;53.232;6.570;2023-02-05T06:52:52;103518.44;;;5.10;95.43
75221;BME280;63802;53.232;6.570;2023-02-05T06:55:18;103532.25;;;5.14;95.17
75221;BME280;63802;53.232;6.570;2023-02-05T06:57:43;103538.00;;;5.17;95.08
75221;BME280;63802;53.232;6.570;2023-02-05T07:00:10;103529.00;;;5.12;95.08
75221;BME280;63802;53.232;6.570;2023-02-05T07:02:35;103540.13;;;5.15;95.12
75221;BME280;63802;53.232;6.570;2023-02-05T07:05:01;103540.13;;;5.15;95.27
75221;BME280;63802;53.232;6.570;2023-02-05T07:07:26;103541.19;;;5.14;95.37
75221;BME280;63802;53.232;6.570;2023-02-05T07:09:52;103543.41;;;5.17;95.24
75221;BME280;63802;53.232;6.570;2023-02-05T07:12:17;103541.47;;;5.13;95.12
75221;BME280;63802;53.232;6.570;2023-02-05T07:14:43;103545.50;;;5.10;95.32
75221;BME280;63802;53.232;6.570;2023-02-05T07:17:08;103543.91;;;5.14;95.13
75221;BME280;63802;53.232;6.570;2023-02-05T07:19:35;103571.53;;;5.16;95.28
75221;BME280;63802;53.232;6.570;2023-02-05T07:22:01;103571.81;;;5.15;95.47
75221;BME280;63802;53.232;6.570;2023-02-05T07:24:26;103558.94;;;5.00;95.59
75221;BME280;63802;53.232;6.570;2023-02-05T07:26:52;103583.97;;;5.12;95.50
75221;BME280;63802;53.232;6.570;2023-02-05T07:29:17;103577.44;;;5.08;95.17
75221;BME280;63802;53.232;6.570;2023-02-05T07:31:43;103598.56;;;5.11;95.52
75221;BME280;63802;53.232;6.570;2023-02-05T07:34:08;103583.97;;;5.12;95.45
75221;BME280;63802;53.232;6.570;2023-02-05T07:36:34;103589.38;;;5.12;95.70
75221;BME280;63802;53.232;6.570;2023-02-05T07:38:59;103601.84;;;5.13;95.87
75221;BME280;63802;53.232;6.570;2023-02-05T07:41:25;103570.34;;;5.02;95.78
75221;BME280;63802;53.232;6.570;2023-02-05T07:43:51;103610.53;;;5.15;95.92
75221;BME280;63802;53.232;6.570;2023-02-05T07:46:17;103626.22;;;5.18;95.66
75221;BME280;63802;53.232;6.570;2023-02-05T07:48:42;103605.38;;;5.19;96.18
75221;BME280;63802;53.232;6.570;2023-02-05T07:51:14;103612.69;;;5.18;95.88
75221;BME280;63802;53.232;6.570;2023-02-05T07:53:40;103628.97;;;5.23;96.10
75221;BME280;63802;53.232;6.570;2023-02-05T07:56:05;103617.03;;;5.19;96.07
75221;BME280;63802;53.232;6.570;2023-02-05T07:58:31;103637.97;;;5.29;96.08
75221;BME280;63802;53.232;6.570;2023-02-05T08:01:00;103642.00;;;5.26;96.39
75221;BME280;63802;53.232;6.570;2023-02-05T08:03:26;103632.78;;;5.22;96.29
75221;BME280;63802;53.232;6.570;2023-02-05T08:05:55;103639.84;;;5.28;96.37
75221;BME280;63802;53.232;6.570;2023-02-05T08:08:20;103624.09;;;5.20;95.96
75221;BME280;63802;53.232;6.570;2023-02-05T08:10:47;103662.38;;;5.34;96.35
75221;BME280;63802;53.232;6.570;2023-02-05T08:13:12;103671.88;;;5.36;96.53
75221;BME280;63802;53.232;6.570;2023-02-05T08:15:38;103657.03;;;5.39;96.49
75221;BME280;63802;53.232;6.570;2023-02-05T08:18:04;103650.13;;;5.26;96.43
75221;BME280;63802;53.232;6.570;2023-02-05T08:20:30;103680.53;;;5.33;96.32
75221;BME280;63802;53.232;6.570;2023-02-05T08:22:55;103686.50;;;5.35;96.13
75221;BME280;63802;53.232;6.570;2023-02-05T08:25:21;103696.72;;;5.28;96.25
75221;BME280;63802;53.232;6.570;2023-02-05T08:27:46;103703.50;;;5.31;96.49
75221;BME280;63802;53.232;6.570;2023-02-05T08:30:14;103713.28;;;5.32;96.48
75221;BME280;63802;53.232;6.570;2023-02-05T08:32:40;103727.38;;;5.34;96.46
75221;BME280;63802;53.232;6.570;2023-02-05T08:35:07;103720.63;;;5.36;96.14
75221;BME280;63802;53.232;6.570;2023-02-05T08:37:32;103727.66;;;5.37;96.01
75221;BME280;63802;53.232;6.570;2023-02-05T08:39:57;103728.31;;;5.45;96.01
75221;BME280;63802;53.232;6.570;2023-02-05T08:42:23;103724.00;;;5.49;96.18
75221;BME280;63802;53.232;6.570;2023-02-05T08:44:51;103723.06;;;5.38;96.30
75221;BME280;63802;53.232;6.570;2023-02-05T08:47:20;103725.00;;;5.42;95.97
75221;BME280;63802;53.232;6.570;2023-02-05T08:49:46;103720.31;;;5.33;95.74
75221;BME280;63802;53.232;6.570;2023-02-05T08:52:12;103717.88;;;5.31;96.30
75221;BME280;63802;53.232;6.570;2023-02-05T08:54:38;103739.13;;;5.45;95.72
75221;BME280;63802;53.232;6.570;2023-02-05T08:57:03;103740.25;;;5.49;95.68
75221;BME280;63802;53.232;6.570;2023-02-05T08:59:29;103747.28;;;5.50;95.88
75221;BME280;63802;53.232;6.570;2023-02-05T09:01:54;103753.28;;;5.52;95.86
75221;BME280;63802;53.232;6.570;2023-02-05T09:04:23;103766.25;;;5.50;95.66
75221;BME280;63802;53.232;6.570;2023-02-05T09:06:49;103767.44;;;5.59;95.65
75221;BME280;63802;53.232;6.570;2023-02-05T09:09:15;103775.56;;;5.59;95.86
75221;BME280;63802;53.232;6.570;2023-02-05T09:11:41;103780.38;;;5.57;95.64
75221;BME280;63802;53.232;6.570;2023-02-05T09:14:08;103784.69;;;5.53;96.00
75221;BME280;63802;53.232;6.570;2023-02-05T09:16:34;103794.47;;;5.54;95.88
75221;BME280;63802;53.232;6.570;2023-02-05T09:18:59;103802.53;;;5.49;96.06
75221;BME280;63802;53.232;6.570;2023-02-05T09:21:25;103794.91;;;5.46;95.98
75221;BME280;63802;53.232;6.570;2023-02-05T09:23:51;103810.16;;;5.52;96.06
75221;BME280;63802;53.232;6.570;2023-02-05T09:26:17;103817.75;;;5.55;95.99
75221;BME280;63802;53.232;6.570;2023-02-05T09:28:42;103807.47;;;5.57;95.82
75221;BME280;63802;53.232;6.570;2023-02-05T09:31:11;103815.66;;;5.62;95.69
75221;BME280;63802;53.232;6.570;2023-02-05T09:33:37;103821.81;;;5.79;95.77
75221;BME280;63802;53.232;6.570;2023-02-05T09:36:14;103830.22;;;6.04;95.88
75221;BME280;63802;53.232;6.570;2023-02-05T09:38:40;103824.25;;;6.07;95.28
75221;BME280;63802;53.232;6.570;2023-02-05T09:41:16;103846.03;;;6.17;95.35
75221;BME280;63802;53.232;6.570;2023-02-05T09:46:24;103838.59;;;6.34;95.17
75221;BME280;63802;53.232;6.570;2023-02-05T09:48:53;103838.09;;;6.42;95.27
75221;BME280;63802;53.232;6.570;2023-02-05T09:51:33;103841.97;;;6.51;95.01
75221;BME280;63802;53.232;6.570;2023-02-05T09:54:15;103854.97;;;6.49;94.83
75221;BME280;63802;53.232;6.570;2023-02-05T09:57:03;103846.56;;;6.51;94.77
75221;BME280;63802;53.232;6.570;2023-02-05T09:59:30;103841.53;;;6.64;94.09
75221;BME280;63802;53.232;6.570;2023-02-05T10:02:01;103841.81;;;6.68;94.16
75221;BME280;63802;53.232;6.570;2023-02-05T10:04:28;103852.31;;;6.54;93.92
75221;BME280;63802;53.232;6.570;2023-02-05T10:07:16;103867.53;;;6.60;93.89
75221;BME280;63802;53.232;6.570;2023-02-05T10:10:04;103875.72;;;6.65;93.70
75221;BME280;63802;53.232;6.570;2023-02-05T10:20:55;103879.75;;;6.26;92.40
75221;BME280;63802;53.232;6.570;2023-02-05T10:26:11;103898.16;;;6.24;91.34
75221;BME280;63802;53.232;6.570;2023-02-05T10:31:37;103891.56;;;6.15;90.62
75221;BME280;63802;53.232;6.570;2023-02-05T10:34:18;103879.13;;;6.19;90.06
75221;BME280;63802;53.232;6.570;2023-02-05T10:36:49;103898.34;;;6.44;89.91
75221;BME280;63802;53.232;6.570;2023-02-05T10:39:16;103900.91;;;6.61;89.60
75221;BME280;63802;53.232;6.570;2023-02-05T10:41:57;103900.09;;;6.60;89.05
75221;BME280;63802;53.232;6.570;2023-02-05T10:44:29;103923.13;;;6.95;88.34
75221;BME280;63802;53.232;6.570;2023-02-05T10:47:05;103897.72;;;7.16;87.27
75221;BME280;63802;53.232;6.570;2023-02-05T10:49:54;103916.31;;;7.44;85.95
75221;BME280;63802;53.232;6.570;2023-02-05T10:52:21;103919.94;;;7.60;85.44
75221;BME280;63802;53.232;6.570;2023-02-05T10:54:49;103929.31;;;7.32;84.33
75221;BME280;63802;53.232;6.570;2023-02-05T10:57:18;103929.47;;;7.10;84.23
75221;BME280;63802;53.232;6.570;2023-02-05T11:02:15;103933.94;;;7.31;84.33
75221;BME280;63802;53.232;6.570;2023-02-05T11:07:41;103917.91;;;7.30;83.58
75221;BME280;63802;53.232;6.570;2023-02-05T11:10:39;103939.25;;;7.58;83.18
75221;BME280;63802;53.232;6.570;2023-02-05T11:13:18;103924.63;;;7.79;83.04
75221;BME280;63802;53.232;6.570;2023-02-05T11:18:25;103939.81;;;7.70;82.93
75221;BME280;63802;53.232;6.570;2023-02-05T11:20:59;103933.06;;;7.88;82.51
75221;BME280;63802;53.232;6.570;2023-02-05T11:23:27;103932.78;;;7.74;81.88
75221;BME280;63802;53.232;6.570;2023-02-05T11:26:20;103900.19;;;7.84;82.07
75221;BME280;63802;53.232;6.570;2023-02-05T11:28:46;103917.38;;;8.15;81.17
75221;BME280;63802;53.232;6.570;2023-02-05T11:31:27;103938.00;;;8.11;80.07
75221;BME280;63802;53.232;6.570;2023-02-05T11:36:34;103953.00;;;8.03;78.97
75221;BME280;63802;53.232;6.570;2023-02-05T11:39:01;103939.34;;;7.93;78.89
75221;BME280;63802;53.232;6.570;2023-02-05T11:41:37;103949.94;;;7.95;78.94
75221;BME280;63802;53.232;6.570;2023-02-05T11:44:18;103942.63;;;8.00;78.86
75221;BME280;63802;53.232;6.570;2023-02-05T11:46:45;103941.22;;;7.88;78.79
75221;BME280;63802;53.232;6.570;2023-02-05T11:49:20;103948.56;;;7.77;79.09
75221;BME280;63802;53.232;6.570;2023-02-05T11:51:49;103939.06;;;7.95;78.54
75221;BME280;63802;53.232;6.570;2023-02-05T11:54:27;103943.69;;;7.94;78.48
75221;BME280;63802;53.232;6.570;2023-02-05T12:02:35;103938.91;;;8.37;77.92
75221;BME280;63802;53.232;6.570;2023-02-05T12:05:11;103926.63;;;8.19;77.55
75221;BME280;63802;53.232;6.570;2023-02-05T12:10:17;103936.94;;;8.17;77.69
75221;BME280;63802;53.232;6.570;2023-02-05T12:12:58;103939.94;;;8.05;77.73
75221;BME280;63802;53.232;6.570;2023-02-05T12:15:35;103950.84;;;8.16;77.79
75221;BME280;63802;53.232;6.570;2023-02-05T12:18:30;103945.38;;;8.26;77.24
75221;BME280;63802;53.232;6.570;2023-02-05T12:26:25;103918.19;;;8.26;77.39
75221;BME280;63802;53.232;6.570;2023-02-05T12:31:56;103939.72;;;8.32;76.98
75221;BME280;63802;53.232;6.570;2023-02-05T12:42:38;103957.84;;;8.01;77.58
75221;BME280;63802;53.232;6.570;2023-02-05T12:46:18;103945.63;;;7.99;77.61
75221;BME280;63802;53.232;6.570;2023-02-05T12:53:54;103957.28;;;7.94;77.70
75221;BME280;63802;53.232;6.570;2023-02-05T12:56:28;103985.06;;;8.06;77.54
75221;BME280;63802;53.232;6.570;2023-02-05T12:59:01;103970.94;;;8.09;77.58
75221;BME280;63802;53.232;6.570;2023-02-05T13:01:38;103964.41;;;8.21;77.66
75221;BME280;63802;53.232;6.570;2023-02-05T13:04:14;103979.63;;;8.06;77.47
75221;BME280;63802;53.232;6.570;2023-02-05T13:06:47;103975.84;;;8.13;77.09
75221;BME280;63802;53.232;6.570;2023-02-05T13:09:28;103947.50;;;7.93;77.04
75221;BME280;63802;53.232;6.570;2023-02-05T13:12:01;103975.75;;;7.87;77.23
75221;BME280;63802;53.232;6.570;2023-02-05T13:14:39;103972.50;;;7.85;77.32
75221;BME280;63802;53.232;6.570;2023-02-05T13:17:23;103989.69;;;7.96;76.21
75221;BME280;63802;53.232;6.570;2023-02-05T13:20:02;103984.44;;;7.74;75.81
75221;BME280;63802;53.232;6.570;2023-02-05T13:22:31;103985.59;;;7.93;74.57
75221;BME280;63802;53.232;6.570;2023-02-05T13:25:36;103983.41;;;7.95;73.07
75221;BME280;63802;53.232;6.570;2023-02-05T13:33:34;104000.78;;;7.89;71.80
75221;BME280;63802;53.232;6.570;2023-02-05T13:36:20;104011.66;;;7.89;72.26
75221;BME280;63802;53.232;6.570;2023-02-05T13:56:03;104025.72;;;7.71;73.39
75221;BME280;63802;53.232;6.570;2023-02-05T13:58:43;104020.81;;;7.68;73.98
75221;BME280;63802;53.232;6.570;2023-02-05T14:01:24;104001.66;;;7.43;74.44
75221;BME280;63802;53.232;6.570;2023-02-05T14:04:24;104009.25;;;7.41;75.10
75221;BME280;63802;53.232;6.570;2023-02-05T14:07:03;103999.44;;;7.35;75.70
75221;BME280;63802;53.232;6.570;2023-02-05T14:09:36;104011.63;;;7.32;75.68
75221;BME280;63802;53.232;6.570;2023-02-05T14:12:23;104014.56;;;7.21;76.32
75221;BME280;63802;53.232;6.570;2023-02-05T14:22:51;104036.00;;;7.17;76.56
75221;BME280;63802;53.232;6.570;2023-02-05T14:30:52;104031.81;;;7.05;76.98
75221;BME280;63802;53.232;6.570;2023-02-05T14:39:01;104043.09;;;6.92;77.82
75221;BME280;63802;53.232;6.570;2023-02-05T14:41:44;104053.97;;;6.92;78.13
75221;BME280;63802;53.232;6.570;2023-02-05T14:44:20;104055.31;;;6.89;78.29
75221;BME280;63802;53.232;6.570;2023-02-05T14:46:59;104040.84;;;6.79;78.08
75221;BME280;63802;53.232;6.570;2023-02-05T14:49:29;104070.16;;;6.82;78.10
75221;BME280;63802;53.232;6.570;2023-02-05T14:52:06;104069.38;;;6.81;78.06
75221;BME280;63802;53.232;6.570;2023-02-05T14:54:50;104080.72;;;6.78;78.22
75221;BME280;63802;53.232;6.570;2023-02-05T14:57:27;104092.16;;;6.80;78.71
75221;BME280;63802;53.232;6.570;2023-02-05T15:00:25;104091.25;;;6.74;78.61
75221;BME280;63802;53.232;6.570;2023-02-05T15:02:58;104082.56;;;6.72;79.07
75221;BME280;63802;53.232;6.570;2023-02-05T15:10:36;104062.84;;;6.55;79.56
75221;BME280;63802;53.232;6.570;2023-02-05T15:13:10;104095.28;;;6.67;80.17
75221;BME280;63802;53.232;6.570;2023-02-05T15:15:37;104088.59;;;6.53;80.21
75221;BME280;63802;53.232;6.570;2023-02-05T15:18:11;104106.78;;;6.52;80.16